KNKT

Cherry Point MCAS / Cunningham Field / Airport

Cherry Point, North Carolina, USA
METAR KNKT 140654Z AUTO 06003KT 10SM CLR 07/06 A3032 RMK AO2 SLP263 T00720061
Observed Flight Rules
Dec-14 @ 06:54 UTC (46 minutes ago) Visual Flight Rules
Wind Visibility Clouds
60° at 3 knots 10 miles
  • Clear skies
Temperatures Readings
Current 7°C / 45°F
Dewpoint 6°C / 43°F
Humidity 93%
Altimeter 30.32" Hg
Pressure 1026.3 hPa
Elevation 9
METAR KNKT 140654Z AUTO 06003KT 10SM CLR 07/06 A3032 RMK AO2 SLP263 T00720061
Observed Flight Rules
Dec-14 @ 06:54 UTC
(46 minutes ago)
VFR
Wind Visibility
60° at 3 knots 10 miles
Clouds
  • Clear skies
Temperature Dewpoint
7°C / 45°F 6°C / 43°F
Humidity Altimeter Pressure
93% 30.32" Hg 1026.3 hPa